< < Back
Terminal Aerodrome Forecast


Current Version              Previous Versions:   1  2  3  4  5  6  7  8  9  

Terminal Aerodrome Forecast

570
FTUS44 KOHX 062324
TAFCSV
TAF
KCSV 062324Z 0700/0724 VRB03KT P6SM BKN120
     FM071900 24007KT P6SM SKC=



Latest METAR

365
SAUS70 KWBC 071700 RRC
MTRCSV
METAR KCSV 071653Z AUTO 32004KT 10SM CLR 08/M07 A3015 RMK AO2 SLP216
T00831067


USA.gov is the U.S. government's official web portal to all federal, state and local government web resources and services.